Historyczne dane pomiarowe

Dodano dane terminowe – wersja testowa.

Dane z okresu 1951-2019

Wersja bazy: 1.34 [2019-03-16, lista zmian], aktualizacja planowana na 2019-04-15

Dane meteo z obszaru Polski uzyskane na podstawie danych udostępnionych przez Instytut Meteorologii i Gospodarki Wodnej – Państwowy Instytut Badawczy.

 

Wybierz Datę:    

       

TemperaturaWilgotnośćZachmurzenieWiatrCiśnienieWidzialnośćZjawiska
 Data    tng td wb rh cc ccl cl cm ch dir g1 g2 mslp ppp      
1999-07-23 00:00:00 6.1--- 6.1 6.1100wxwx4wx--- 798.4 1.2---wxw1
1999-07-23 01:00:00 5.9--- 5.9 5.9100wxwx6wx--- 797.8----wxw1
1999-07-23 02:00:00 5.9--- 5.9 5.9100wxwx6wx--- 797.2----wxw1
1999-07-23 03:00:00 6.0--- 6.0 6.0100wxwx4wx--- 797.8----wxw1
1999-07-23 04:00:00 5.9--- 5.9 5.9100wxwxwx4wx--- 797.2----wxw1
1999-07-23 05:00:00 6.1--- 6.1 6.1100wxwx6wx--- 796.9----wxw1
1999-07-23 06:00:00 5.9--- 5.9 5.9100wxwx5wx--- 797.2 18.9---wxw1
1999-07-23 07:00:00 6.0--- 6.0 6.0100wxwx5wx--- 797.1----wxw1
1999-07-23 08:00:00 4.7--- 4.6 4.7100wxwx9wx--- 796.7----wxw1
1999-07-23 09:00:00 4.8--- 4.8 4.8100wxwx8wx--- 797.1----wxw1
1999-07-23 10:00:00 4.8--- 4.8 4.8100wxwx7wx--- 797.2----wxw1
1999-07-23 11:00:00 4.9--- 4.9 4.9100wxwx7wx--- 797.4----wxw1
1999-07-23 12:00:00 5.0--- 5.0 5.0100wxwx6wx--- 798.0 16.6---wxw1
1999-07-23 13:00:00 4.4--- 4.4 4.4100wxwx9wx--- 798.2----wxw1
1999-07-23 14:00:00 3.6--- 3.6 3.6100wxwx7wx--- 798.5----wxw1
1999-07-23 15:00:00 3.4--- 3.4 3.4100wxwx6wx--- 799.1----wxw1
1999-07-23 16:00:00 3.4--- 3.4 3.4100wxwx6wx--- 799.5----wxw1
1999-07-23 17:00:00 3.4--- 3.4 3.4100wxwx6wx--- 799.8----wxw1
1999-07-23 18:00:00 3.4--- 3.4 3.4100wxwx6wx--- 800.2 5.7---wxw1
1999-07-23 19:00:00 2.8--- 2.8 2.8100wxwx7wx--- 800.5----wxw1
1999-07-23 20:00:00 2.3--- 2.1 2.298wxwx8wx--- 800.9----wxw1
1999-07-23 21:00:00 2.5--- 2.5 2.5100wxwxwx7wx--- 801.6----wxw1
1999-07-23 22:00:00 2.3--- 2.3 2.3100wxwxwx8wx--- 801.8----wx
1999-07-23 23:00:00 2.4--- 2.4 2.4100wxwxwx8wx--- 801.7----wx

 

Źródłem pochodzenia danych jest Instytut Meteorologii i Gospodarki Wodnej – Państwowy Instytut Badawczy. Dane Instytutu Meteorologii i Gospodarki Wodnej – Państwowego Instytutu Badawczego zostały przetworzone.

Dane źródłowe można odnaleźć na stronie https://dane.imgw.pl